Time;durP1;ratioP1;P1;durP2;ratioP2;P2;SDS_P1;SDS_P2;PMS_P1;PMS_P2;Temp;Humidity;BMP_temperature;BMP_pressure;BME280_temperature;BME280_humidity;BME280_pressure;Samples;Min_cycle;Max_cycle;Signal;HPM_P1;HPM_P2
2022/04/27 00:04:59;;;;;;;18.43;10.37;;;;;;;10.68;95.56;100849.88;10542602;28;20310;-68
2022/04/27 00:10:05;;;;;;;20.77;11.33;;;;;;;10.66;99.10;100851.63;10544135;28;20528;-67
2022/04/27 00:15:11;;;;;;;16.40;10.20;;;;;;;10.60;98.89;100851.63;10542374;28;20687;-70
2022/04/27 00:20:14;;;;;;;16.90;10.30;;;;;;;10.63;100.00;100856.78;10542853;28;20223;-66
2022/04/27 00:25:17;;;;;;;17.47;11.00;;;;;;;10.61;100.00;100850.78;10542582;28;20211;-66
2022/04/27 00:30:22;;;;;;;16.73;10.47;;;;;;;10.53;100.00;100855.09;10542041;28;20294;-70
2022/04/27 00:35:25;;;;;;;16.80;11.00;;;;;;;10.44;100.00;100868.06;10523340;28;20219;-71
2022/04/27 00:40:28;;;;;;;18.17;11.27;;;;;;;10.33;100.00;100862.94;10517319;28;20299;-67
2022/04/27 00:45:33;;;;;;;17.10;10.57;;;;;;;10.21;100.00;100865.53;10548040;28;20215;-66
2022/04/27 00:50:37;;;;;;;20.67;12.03;;;;;;;10.15;100.00;100864.66;10541739;28;20544;-69
2022/04/27 00:55:40;;;;;;;21.27;12.50;;;;;;;10.01;100.00;100861.19;10539943;28;20228;-70
2022/04/27 01:00:45;;;;;;;26.23;12.93;;;;;;;9.89;100.00;100859.44;10508069;28;20665;-68
2022/04/27 01:05:49;;;;;;;23.50;13.33;;;;;;;9.83;100.00;100866.34;10507795;28;20570;-71
2022/04/27 01:10:53;;;;;;;25.53;15.37;;;;;;;9.67;100.00;100870.66;10507433;28;20245;-71
2022/04/27 01:15:58;;;;;;;22.90;13.93;;;;;;;9.50;100.00;100871.47;10508361;28;20251;-64
2022/04/27 01:21:03;;;;;;;23.47;14.27;;;;;;;9.46;100.00;100880.94;10539665;28;20231;-70
2022/04/27 01:26:07;;;;;;;21.07;12.90;;;;;;;9.30;100.00;100879.19;10548818;28;20216;-67
2022/04/27 01:31:11;;;;;;;23.10;14.43;;;;;;;9.25;100.00;100891.25;10548648;28;20219;-67
2022/04/27 01:36:16;;;;;;;24.23;14.67;;;;;;;9.17;100.00;100892.94;10548723;28;20223;-67
2022/04/27 01:41:19;;;;;;;27.80;14.63;;;;;;;9.07;100.00;100893.78;10548520;28;20229;-70
2022/04/27 01:46:23;;;;;;;24.13;15.40;;;;;;;9.01;100.00;100902.38;10548489;28;20215;-69
2022/04/27 01:56:52;;;;;;;28.73;17.40;;;;;;;9.13;100.00;100901.53;10547932;28;20215;-68
2022/04/27 02:01:57;;;;;;;24.17;15.83;;;;;;;9.19;100.00;100906.78;10547820;28;20321;-69
2022/04/27 02:07:02;;;;;;;26.20;16.47;;;;;;;9.18;100.00;100903.31;10546345;28;20211;-68
2022/04/27 02:12:06;;;;;;;25.83;15.50;;;;;;;9.17;100.00;100903.31;10547177;28;20223;-68
2022/04/27 02:17:10;;;;;;;24.53;15.13;;;;;;;9.04;100.00;100897.19;10546826;28;20257;-71
2022/04/27 02:22:14;;;;;;;21.50;14.63;;;;;;;8.97;100.00;100903.19;10547252;28;20597;-68
2022/04/27 02:27:19;;;;;;;25.93;16.37;;;;;;;8.91;100.00;100908.38;10546616;28;20198;-68
2022/04/27 02:32:23;;;;;;;24.87;16.17;;;;;;;8.85;100.00;100908.31;10546370;28;20220;-71
2022/04/27 02:37:27;;;;;;;25.10;16.53;;;;;;;8.75;100.00;100909.13;10546251;28;20198;-69
2022/04/27 02:42:31;;;;;;;25.73;14.47;;;;;;;8.65;100.00;100919.41;10546594;28;20532;-68
2022/04/27 02:47:35;;;;;;;24.97;15.83;;;;;;;8.59;100.00;100912.50;10546141;28;20200;-68
2022/04/27 02:52:40;;;;;;;24.20;15.40;;;;;;;8.48;100.00;100915.84;10546198;28;20310;-68
2022/04/27 02:57:43;;;;;;;30.03;17.47;;;;;;;8.37;100.00;100915.75;10548725;28;20192;-73
2022/04/27 03:02:46;;;;;;;25.80;16.70;;;;;;;8.41;100.00;100919.22;10545653;28;20243;-71
2022/04/27 03:07:51;;;;;;;25.73;16.57;;;;;;;8.36;100.00;100926.97;10545032;28;20621;-69
2022/04/27 03:12:54;;;;;;;26.30;15.87;;;;;;;8.26;100.00;100930.34;10544744;28;20546;-70
2022/04/27 03:23:17;;;;;;;28.00;16.83;;;;;;;8.15;100.00;100950.88;10544592;28;20191;-71
2022/04/27 03:28:20;;;;;;;29.03;16.37;;;;;;;8.12;100.00;100950.00;10545628;28;20195;-69
2022/04/27 03:33:24;;;;;;;25.37;16.33;;;;;;;8.07;100.00;100956.84;10543987;28;20245;-70
2022/04/27 03:38:29;;;;;;;28.07;16.77;;;;;;;8.03;100.00;100968.00;10543710;28;20629;-67
2022/04/27 03:43:33;;;;;;;30.37;15.97;;;;;;;8.04;100.00;100967.16;10544879;28;20191;-70
2022/04/27 03:48:36;;;;;;;28.67;15.57;;;;;;;7.95;100.00;100967.94;10543855;28;20195;-70
2022/04/27 03:53:41;;;;;;;27.53;16.00;;;;;;;7.86;100.00;100970.41;10543392;28;20288;-70
2022/04/27 03:58:44;;;;;;;31.93;16.30;;;;;;;7.95;100.00;100973.09;10543374;28;20516;-72
2022/04/27 04:03:47;;;;;;;27.20;14.83;;;;;;;7.96;100.00;100985.16;10544568;28;20227;-72
2022/04/27 04:08:52;;;;;;;29.27;16.93;;;;;;;8.00;100.00;100986.94;10542823;28;20274;-70
2022/04/27 04:13:55;;;;;;;31.13;15.00;;;;;;;8.02;100.00;100995.56;10542850;28;20214;-70
2022/04/27 04:18:58;;;;;;;28.03;14.43;;;;;;;8.10;100.00;100999.09;10542494;28;20281;-72
2022/04/27 04:24:03;;;;;;;27.87;15.30;;;;;;;8.07;100.00;101008.53;10542566;28;20206;-69
2022/04/27 04:29:06;;;;;;;22.50;13.87;;;;;;;8.07;100.00;101012.00;10542258;28;20274;-74
2022/04/27 04:34:10;;;;;;;23.67;13.70;;;;;;;8.07;100.00;101013.72;10542712;28;20656;-64
2022/04/27 04:39:14;;;;;;;34.23;19.30;;;;;;;8.13;100.00;101019.81;10542086;28;20516;-66
2022/04/27 04:44:18;;;;;;;24.77;14.80;;;;;;;8.12;100.00;101028.44;10542066;28;20192;-70
2022/04/27 04:49:21;;;;;;;26.13;14.83;;;;;;;8.11;100.00;101031.00;10542013;28;20715;-71
2022/04/27 04:54:26;;;;;;;24.27;13.83;;;;;;;8.19;100.00;101037.09;10542030;28;20677;-70
2022/04/27 04:59:29;;;;;;;27.17;14.23;;;;;;;8.26;100.00;101033.78;10541817;28;20192;-70
2022/04/27 05:04:34;;;;;;;24.23;13.87;;;;;;;8.34;100.00;101045.03;10541360;28;20223;-68
2022/04/27 05:09:40;;;;;;;30.17;14.60;;;;;;;8.37;100.00;101051.97;10541891;28;20241;-68
2022/04/27 05:14:43;;;;;;;23.30;13.63;;;;;;;8.45;100.00;101065.84;10541336;28;20522;-67
2022/04/27 05:19:48;;;;;;;24.77;13.90;;;;;;;8.47;100.00;101066.72;10541413;28;20215;-69
2022/04/27 05:24:53;;;;;;;18.90;10.90;;;;;;;8.52;100.00;101081.44;10541442;28;20234;-68
2022/04/27 05:35:40;;;;;;;18.27;10.20;;;;;;;8.69;100.00;101085.06;10454100;28;20224;-71
2022/04/27 05:40:46;;;;;;;18.13;8.87;;;;;;;8.77;100.00;101098.03;10526931;28;20259;-70
2022/04/27 05:45:50;;;;;;;20.80;9.73;;;;;;;8.82;100.00;101101.53;10548356;28;20295;-69
2022/04/27 05:50:54;;;;;;;18.40;8.93;;;;;;;8.91;100.00;101101.63;10548084;28;20183;-70
2022/04/27 05:55:59;;;;;;;15.93;8.80;;;;;;;8.97;100.00;101109.47;10547787;28;20536;-72
2022/04/27 06:01:02;;;;;;;19.87;9.33;;;;;;;9.03;100.00;101112.97;10547594;28;20528;-69
2022/04/27 06:06:05;;;;;;;17.90;9.03;;;;;;;9.11;100.00;101113.88;10547326;28;20227;-68
2022/04/27 06:11:10;;;;;;;16.37;9.07;;;;;;;9.25;99.28;101125.22;10549492;28;20218;-73
2022/04/27 06:16:14;;;;;;;15.70;8.53;;;;;;;9.33;100.00;101127.88;10547319;28;20648;-71
2022/04/27 06:21:18;;;;;;;20.20;8.83;;;;;;;9.50;99.02;101125.38;10547047;28;20212;-73
2022/04/27 06:26:23;;;;;;;17.00;8.80;;;;;;;9.59;100.00;101123.72;10546881;28;20227;-72
2022/04/27 06:31:26;;;;;;;14.77;8.03;;;;;;;9.64;97.72;101128.94;10546385;28;20349;-69
2022/04/27 06:36:30;;;;;;;17.33;7.13;;;;;;;9.77;95.62;101134.19;10546209;28;20227;-65
2022/04/27 06:41:34;;;;;;;14.50;6.80;;;;;;;9.94;93.59;101123.91;10546446;28;20219;-70
2022/04/27 06:46:38;;;;;;;13.87;6.37;;;;;;;10.04;92.39;101123.94;10546963;28;20312;-67
2022/04/27 06:51:41;;;;;;;19.07;9.20;;;;;;;10.14;91.67;101130.97;10545046;28;20284;-71
2022/04/27 06:56:46;;;;;;;10.43;5.67;;;;;;;10.28;92.04;101126.69;10545981;28;20318;-72
2022/04/27 07:01:49;;;;;;;14.20;6.20;;;;;;;10.39;92.43;101129.28;10543449;28;20212;-70
2022/04/27 07:06:53;;;;;;;16.67;5.83;;;;;;;10.41;88.73;101132.75;10540164;28;20290;-68
2022/04/27 07:11:59;;;;;;;16.73;6.27;;;;;;;10.54;87.61;101136.25;10541142;28;20294;-68
2022/04/27 07:17:02;;;;;;;11.87;4.67;;;;;;;10.71;87.69;101131.97;10545259;28;20211;-69
2022/04/27 07:22:06;;;;;;;13.93;5.30;;;;;;;10.84;85.48;101138.91;10543273;28;20208;-69
2022/04/27 07:27:13;;;;;;;9.70;4.90;;;;;;;11.00;83.64;101146.72;10543146;28;20208;-69
2022/04/27 07:32:16;;;;;;;21.53;4.97;;;;;;;11.18;83.27;101149.31;10540300;28;20246;-69
2022/04/27 07:37:19;;;;;;;7.97;4.10;;;;;;;11.32;81.76;101145.00;10542858;28;20203;-70
2022/04/27 07:42:24;;;;;;;8.77;3.73;;;;;;;11.55;79.29;101151.03;10542728;28;20310;-72
2022/04/27 07:47:27;;;;;;;7.20;3.87;;;;;;;11.75;78.50;101152.78;10543776;28;20294;-69
2022/04/27 07:52:31;;;;;;;8.50;3.77;;;;;;;11.88;77.42;101151.88;10542491;28;20566;-67
2022/04/27 07:57:36;;;;;;;6.20;3.40;;;;;;;12.03;76.47;101159.66;10542110;28;20310;-72
2022/04/27 08:02:39;;;;;;;8.27;4.03;;;;;;;12.10;77.23;101153.53;10541016;28;20311;-72
2022/04/27 08:07:45;;;;;;;9.37;4.00;;;;;;;12.22;76.28;101150.88;10541843;28;20616;-68
2022/04/27 08:12:50;;;;;;;7.27;3.10;;;;;;;12.31;74.92;101154.31;10540527;28;20211;-72
2022/04/27 08:17:56;;;;;;;9.33;3.67;;;;;;;12.46;74.24;101169.00;10541963;28;20207;-68
2022/04/27 08:22:59;;;;;;;6.33;2.97;;;;;;;12.59;71.76;101160.25;10542064;28;20294;-73
2022/04/27 08:28:06;;;;;;;7.00;2.70;;;;;;;12.70;70.27;101158.47;10541270;28;20294;-72
2022/04/27 08:33:11;;;;;;;7.33;2.77;;;;;;;12.84;70.24;101161.81;10541342;28;20609;-72
2022/04/27 08:38:15;;;;;;;6.17;2.17;;;;;;;13.00;67.82;101160.84;10540847;28;20282;-69
2022/04/27 08:43:22;;;;;;;6.77;3.23;;;;;;;13.12;68.75;101166.00;10541206;28;20556;-69
2022/04/27 08:48:25;;;;;;;6.87;3.20;;;;;;;13.31;68.20;101158.91;10538096;28;20212;-67
2022/04/27 08:53:29;;;;;;;5.13;2.57;;;;;;;13.55;66.64;101167.38;10540768;28;20294;-66
2022/04/27 08:58:33;;;;;;;6.57;2.87;;;;;;;13.88;66.10;101160.97;10541301;28;20219;-67
2022/04/27 09:03:46;;;;;;;4.60;2.13;;;;;;;14.16;64.89;101170.22;10539038;28;20227;-69
2022/04/27 09:08:52;;;;;;;6.33;2.13;;;;;;;14.56;62.19;101155.81;10540572;28;20234;-63
2022/04/27 09:13:59;;;;;;;5.17;1.70;;;;;;;14.93;61.64;101151.78;10508045;28;20353;-69
2022/04/27 09:24:23;;;;;;;4.67;1.67;;;;;;;15.09;58.54;101157.63;10507082;28;20298;-67
2022/04/27 09:29:28;;;;;;;4.53;1.80;;;;;;;15.20;59.35;101166.19;10506697;28;20299;-67
2022/04/27 09:34:44;;;;;;;8.80;2.10;;;;;;;15.08;54.95;101155.94;10543179;28;20253;-66
2022/04/27 09:39:59;;;;;;;5.63;2.13;;;;;;;15.02;56.95;101163.84;10548523;28;20301;-66
2022/04/27 09:45:17;;;;;;;4.90;1.80;;;;;;;15.10;57.07;101155.91;10548249;28;20726;-68
2022/04/27 09:50:21;;;;;;;4.23;1.60;;;;;;;15.23;56.39;101163.53;10548380;28;20624;-67
2022/04/27 09:55:26;;;;;;;19.07;4.77;;;;;;;15.91;54.97;101165.81;10547979;28;20234;-69
2022/04/27 10:00:31;;;;;;;3.97;1.63;;;;;;;17.18;53.45;101163.09;10547604;28;20302;-65
2022/04/27 10:05:34;;;;;;;6.93;2.30;;;;;;;18.78;48.08;101149.03;10546995;28;20327;-68
2022/04/27 10:10:45;;;;;;;6.67;2.80;;;;;;;18.32;46.68;101146.03;10544298;28;20602;-68
2022/04/27 10:15:50;;;;;;;5.40;2.00;;;;;;;17.87;49.40;101150.81;10508531;28;20223;-70
2022/04/27 10:20:53;;;;;;;7.13;2.40;;;;;;;17.73;49.19;101142.44;10505933;28;20353;-70
2022/04/27 10:26:14;;;;;;;7.00;3.20;;;;;;;17.99;48.56;101150.47;10503782;28;20373;-67
2022/04/27 10:32:02;;;;;;;6.60;2.13;;;;;;;18.17;45.79;101149.94;10504510;28;20596;-70
2022/04/27 10:37:06;;;;;;;5.37;2.07;;;;;;;18.64;48.01;101159.09;10376497;28;20324;-70
2022/04/27 10:42:34;;;;;;;9.70;3.73;;;;;;;20.58;42.72;101151.53;10479364;28;20259;-68
2022/04/27 10:47:42;;;;;;;4.37;2.10;;;;;;;20.19;43.26;101151.25;10503744;28;20618;-73
2022/04/27 10:52:50;;;;;;;5.83;1.67;;;;;;;19.48;46.27;101155.53;10503753;28;20219;-71
2022/04/27 10:58:12;;;;;;;9.30;3.53;;;;;;;20.84;42.00;101158.44;10503299;28;20692;-70
2022/04/27 11:03:20;;;;;;;3.57;1.53;;;;;;;20.45;41.59;101152.91;10503465;28;20242;-69
2022/04/27 11:08:29;;;;;;;4.20;1.70;;;;;;;20.45;42.46;101151.13;10503031;28;20236;-70
2022/04/27 11:13:33;;;;;;;7.10;1.73;;;;;;;20.47;41.30;101148.44;10502738;28;20307;-69
2022/04/27 11:18:50;;;;;;;5.20;1.73;;;;;;;20.30;42.52;101153.47;10502561;28;20294;-70
2022/04/27 11:23:55;;;;;;;5.37;2.10;;;;;;;19.91;44.87;101147.00;10502611;28;20299;-69
2022/04/27 11:28:59;;;;;;;6.47;1.67;;;;;;;19.44;43.77;101156.56;10503714;28;20298;-69
2022/04/27 11:34:21;;;;;;;5.50;2.30;;;;;;;19.34;42.99;101150.75;10502160;28;20421;-71
2022/04/27 11:39:26;;;;;;;4.87;2.00;;;;;;;19.36;43.79;101159.44;10501211;28;20306;-70
2022/04/27 11:44:29;;;;;;;6.70;2.93;;;;;;;21.16;41.15;101152.75;10537341;28;20240;-70
2022/04/27 11:49:34;;;;;;;5.13;1.70;;;;;;;24.35;37.64;101132.13;10542834;28;20254;-68
2022/04/27 11:54:38;;;;;;;4.35;1.70;;;;;;;24.62;36.24;101140.38;10542516;28;20305;-68
2022/04/27 11:59:42;;;;;;;;;;;;;;;24.54;35.29;101140.78;10543242;28;20007;-68
2022/04/27 12:04:47;;;;;;;;;;;;;;;24.12;34.99;101137.84;10542921;28;19966;-67
2022/04/27 12:09:57;;;;;;;5.30;1.80;;;;;;;22.74;36.91;101143.91;10542049;28;20373;-67
2022/04/27 12:15:08;;;;;;;4.17;2.00;;;;;;;21.44;40.58;101148.91;10500277;28;20224;-68
2022/04/27 12:20:25;;;;;;;7.13;2.40;;;;;;;20.78;40.26;101153.41;10491640;28;20219;-67
2022/04/27 12:25:37;;;;;;;5.67;1.57;;;;;;;20.43;39.82;101152.97;10480456;28;20312;-68
2022/04/27 12:30:42;;;;;;;4.03;1.73;;;;;;;20.97;39.53;101149.13;10458307;28;20213;-68
2022/04/27 12:41:29;;;;;;;6.00;1.63;;;;;;;21.58;39.15;101140.41;10458898;28;20299;-69
2022/04/27 12:46:32;;;;;;;3.60;1.70;;;;;;;21.88;38.70;101140.91;10491581;28;20243;-68
2022/04/27 12:51:38;;;;;;;3.63;1.50;;;;;;;21.37;38.74;101136.88;10503629;28;20222;-68
2022/04/27 12:56:46;;;;;;;5.37;1.63;;;;;;;20.80;40.67;101138.34;10508313;28;20616;-67
2022/04/27 13:01:57;;;;;;;3.63;1.40;;;;;;;20.22;37.74;101139.75;10507778;28;20216;-69
2022/04/27 13:07:03;;;;;;;4.63;1.30;;;;;;;19.79;39.83;101137.78;10507650;28;20302;-68
2022/04/27 13:12:08;;;;;;;3.60;1.50;;;;;;;19.91;40.64;101129.44;10507231;28;20234;-68
2022/04/27 13:17:17;;;;;;;6.93;1.50;;;;;;;19.93;39.95;101127.56;10507891;28;20234;-68
2022/04/27 13:22:23;;;;;;;4.63;1.60;;;;;;;22.28;37.52;101125.81;10507181;28;20646;-66
2022/04/27 13:27:32;;;;;;;5.90;1.60;;;;;;;23.44;37.43;101116.66;10507227;28;20230;-68
2022/04/27 13:32:44;;;;;;;;;;;;;;;22.60;37.57;101119.06;10507073;28;20012;-71
2022/04/27 13:37:49;;;;;;;;;;;;;;;21.50;39.42;101126.66;10507007;28;19928;-68
2022/04/27 13:42:52;;;;;;;;;;;;;;;20.56;38.52;101125.22;10507495;28;19920;-70
2022/04/27 13:47:55;;;;;;;4.87;1.70;;;;;;;19.97;40.93;101126.56;10506607;28;20758;-67
2022/04/27 13:53:00;;;;;;;5.10;1.50;;;;;;;19.80;38.34;101128.94;10505963;28;20224;-70
2022/04/27 13:58:03;;;;;;;4.40;1.50;;;;;;;19.36;40.69;101119.09;10505462;28;20231;-68
2022/04/27 14:03:08;;;;;;;7.30;1.43;;;;;;;18.96;39.84;101126.53;10504079;28;20265;-69
2022/04/27 14:08:14;;;;;;;6.63;1.80;;;;;;;18.97;40.03;101120.34;10484683;28;20217;-62
2022/04/27 14:13:17;;;;;;;5.80;2.03;;;;;;;18.64;42.00;101124.91;10505287;28;20228;-64
2022/04/27 14:18:20;;;;;;;4.00;1.50;;;;;;;18.49;42.17;101125.38;10489014;28;20225;-62
2022/04/27 14:23:25;;;;;;;52.73;29.70;;;;;;;18.33;41.34;101124.09;10504200;28;20597;-62
2022/04/27 14:28:28;;;;;;;4.43;1.70;;;;;;;20.27;39.09;101117.56;10505451;28;20216;-64
2022/04/27 14:33:32;;;;;;;6.90;2.10;;;;;;;21.47;37.74;101111.78;10504174;28;20273;-62
2022/04/27 14:38:37;;;;;;;12.70;2.17;;;;;;;21.91;38.60;101101.97;10501632;28;20295;-67
2022/04/27 14:43:41;;;;;;;4.17;1.37;;;;;;;22.09;37.65;101114.34;10503757;28;20652;-69
2022/04/27 14:48:44;;;;;;;5.97;2.90;;;;;;;21.90;37.31;101108.16;10494413;28;20666;-67
2022/04/27 14:53:49;;;;;;;4.03;1.90;;;;;;;20.42;37.20;101116.09;10496689;28;20220;-67
2022/04/27 14:58:52;;;;;;;3.93;1.70;;;;;;;19.90;39.54;101122.41;10503037;28;20215;-67
2022/04/27 15:03:57;;;;;;;3.13;1.20;;;;;;;19.51;41.32;101129.97;10503105;28;20224;-66
2022/04/27 15:09:01;;;;;;;3.83;1.50;;;;;;;18.98;39.66;101135.25;10502759;28;20219;-63
2022/04/27 15:14:05;;;;;;;4.83;1.37;;;;;;;18.56;43.05;101133.94;10505053;28;20565;-65
2022/04/27 15:19:08;;;;;;;7.77;3.60;;;;;;;18.60;42.32;101138.22;10473015;28;20213;-64
2022/04/27 15:24:13;;;;;;;3.70;1.47;;;;;;;18.53;41.12;101134.03;10460780;28;20220;-66
2022/04/27 15:29:16;;;;;;;3.50;1.50;;;;;;;18.25;40.56;101132.22;10460372;28;20217;-63
2022/04/27 15:34:19;;;;;;;4.83;1.47;;;;;;;17.99;44.46;101139.09;10474205;28;20558;-64
2022/04/27 15:39:24;;;;;;;5.60;1.60;;;;;;;17.98;42.84;101134.75;10543522;28;20212;-64
2022/04/27 15:44:27;;;;;;;4.43;1.67;;;;;;;17.66;41.76;101137.38;10543285;28;20220;-62
2022/04/27 15:49:31;;;;;;;3.63;1.33;;;;;;;17.49;41.56;101140.47;10543192;28;20227;-63
2022/04/27 15:54:36;;;;;;;309.33;165.53;;;;;;;17.29;43.04;101145.34;10542586;28;20641;-65
2022/04/27 15:59:40;;;;;;;7.10;2.97;;;;;;;17.22;42.71;101136.72;10542518;28;20219;-63
2022/04/27 16:04:44;;;;;;;4.10;1.60;;;;;;;17.02;46.02;101145.97;10542311;28;20227;-63
2022/04/27 16:09:50;;;;;;;4.10;1.70;;;;;;;16.80;48.30;101155.25;10542541;28;20541;-64
2022/04/27 16:14:53;;;;;;;4.63;1.60;;;;;;;16.71;48.62;101147.56;10542087;28;20292;-64
2022/04/27 16:19:59;;;;;;;5.17;1.50;;;;;;;16.49;51.44;101159.44;10501196;28;20216;-69
2022/04/27 16:25:04;;;;;;;5.53;1.53;;;;;;;16.46;47.53;101152.53;10499505;28;20234;-67
2022/04/27 16:30:08;;;;;;;36.73;17.77;;;;;;;16.64;44.96;101152.09;10500996;28;20216;-68
2022/04/27 16:35:30;;;;;;;5.00;2.00;;;;;;;16.71;44.44;101147.56;10500053;28;20228;-68
2022/04/27 16:40:35;;;;;;;4.23;1.50;;;;;;;16.44;45.89;101154.28;10500099;28;20204;-69
2022/04/27 16:45:42;;;;;;;4.03;1.70;;;;;;;16.41;43.92;101154.31;10499922;28;20230;-68
2022/04/27 16:50:46;;;;;;;4.33;1.73;;;;;;;16.19;45.58;101163.50;10499715;28;20188;-66
2022/04/27 16:55:50;;;;;;;7.57;2.10;;;;;;;16.03;47.27;101165.56;10499559;28;20211;-67
2022/04/27 17:00:56;;;;;;;6.43;2.80;;;;;;;15.74;51.61;101175.72;10499368;28;20180;-66
2022/04/27 17:06:02;;;;;;;8.77;2.87;;;;;;;15.49;53.08;101177.06;10499156;28;20255;-69
2022/04/27 17:11:08;;;;;;;4.70;1.93;;;;;;;15.40;52.81;101181.56;10472501;28;20213;-70
2022/04/27 17:16:13;;;;;;;6.57;2.63;;;;;;;15.33;50.77;101188.63;10457837;28;20221;-70
2022/04/27 17:21:16;;;;;;;7.73;3.37;;;;;;;15.20;51.24;101199.31;10457811;28;20216;-71
2022/04/27 17:31:41;;;;;;;6.30;2.83;;;;;;;15.07;51.98;101203.84;10457627;28;20627;-64
2022/04/27 17:36:45;;;;;;;11.33;4.17;;;;;;;14.96;53.83;101206.63;10461193;28;20304;-65
2022/04/27 17:41:50;;;;;;;8.67;3.30;;;;;;;14.73;57.26;101218.28;10464895;28;20617;-68
2022/04/27 17:46:54;;;;;;;8.00;2.60;;;;;;;14.47;56.67;101221.25;10464423;28;20550;-69
2022/04/27 17:51:57;;;;;;;6.63;2.57;;;;;;;14.35;58.33;101238.78;10464879;28;20228;-66
2022/04/27 17:57:02;;;;;;;12.17;6.70;;;;;;;14.30;57.35;101248.44;10464018;28;20227;-65
2022/04/27 18:02:05;;;;;;;9.00;2.70;;;;;;;14.18;55.70;101249.41;10501837;28;20650;-67
2022/04/27 18:07:09;;;;;;;7.70;2.40;;;;;;;14.03;54.90;101259.97;10505277;28;20224;-67
2022/04/27 18:12:14;;;;;;;12.57;4.97;;;;;;;13.99;57.16;101260.91;10504760;28;20218;-66
2022/04/27 18:17:18;;;;;;;6.87;2.97;;;;;;;13.91;57.81;101273.16;10504886;28;20234;-65
2022/04/27 18:22:21;;;;;;;11.10;2.67;;;;;;;13.85;57.44;101276.69;10504656;28;20280;-67
2022/04/27 18:27:27;;;;;;;6.63;2.53;;;;;;;13.84;57.95;101282.78;10504535;28;20312;-66
2022/04/27 18:32:30;;;;;;;8.77;3.17;;;;;;;13.59;62.43;101290.81;10504526;28;20216;-67
2022/04/27 18:37:36;;;;;;;6.23;2.30;;;;;;;13.49;62.77;101296.97;10484827;28;20224;-67
2022/04/27 18:42:41;;;;;;;12.40;3.67;;;;;;;13.42;63.23;101306.59;10462968;28;20212;-65
2022/04/27 18:53:05;;;;;;;7.33;2.90;;;;;;;13.25;65.79;101311.06;10462239;28;20228;-67
2022/04/27 18:58:10;;;;;;;6.23;2.57;;;;;;;13.24;65.29;101319.72;10461885;28;20237;-66
2022/04/27 19:03:13;;;;;;;7.20;3.03;;;;;;;13.17;66.27;101322.38;10461617;28;20232;-67
2022/04/27 19:08:16;;;;;;;9.33;3.73;;;;;;;13.06;67.23;101325.06;10461229;28;20671;-66
2022/04/27 19:13:21;;;;;;;8.00;3.73;;;;;;;12.96;64.33;101325.06;10461103;28;20278;-66
2022/04/27 19:18:27;;;;;;;10.03;4.50;;;;;;;12.87;67.76;101327.69;10460966;28;20225;-68
2022/04/27 19:23:31;;;;;;;11.20;4.00;;;;;;;12.78;66.62;101326.88;10460953;28;20213;-66
2022/04/27 19:28:36;;;;;;;14.70;5.30;;;;;;;12.73;64.71;101325.16;10460672;28;20304;-66
2022/04/27 19:33:42;;;;;;;11.47;4.90;;;;;;;12.56;66.91;101325.19;10460353;28;20699;-66
2022/04/27 19:38:48;;;;;;;13.77;5.23;;;;;;;12.44;68.71;101335.63;10460368;28;20313;-67
2022/04/27 19:43:53;;;;;;;13.67;6.63;;;;;;;12.34;66.65;101330.44;10460357;28;20653;-66
2022/04/27 19:48:57;;;;;;;23.97;6.13;;;;;;;12.31;66.97;101330.44;10460121;28;20384;-66
2022/04/27 19:54:01;;;;;;;17.33;6.53;;;;;;;12.45;63.88;101339.09;10459873;28;20295;-66
2022/04/27 19:59:06;;;;;;;15.07;6.40;;;;;;;12.40;64.35;101335.66;10458864;28;20228;-67
2022/04/27 20:04:10;;;;;;;22.80;12.87;;;;;;;12.19;70.45;101333.94;10459529;28;20700;-64
2022/04/27 20:09:14;;;;;;;18.03;7.17;;;;;;;11.98;72.82;101336.56;10459508;28;20303;-68
2022/04/27 20:14:18;;;;;;;15.70;6.93;;;;;;;11.93;74.35;101342.63;10469510;28;20222;-67
2022/04/27 20:19:22;;;;;;;20.27;7.20;;;;;;;11.77;72.51;101352.16;10500364;28;20552;-72
2022/04/27 20:24:25;;;;;;;14.30;7.83;;;;;;;11.80;71.47;101361.69;10500302;28;20307;-68
2022/04/27 20:29:30;;;;;;;18.10;8.30;;;;;;;11.76;70.55;101358.22;10499058;28;20222;-68
2022/04/27 20:34:33;;;;;;;15.63;8.60;;;;;;;11.73;69.76;101371.25;10500245;28;20311;-68
2022/04/27 20:39:39;;;;;;;19.60;8.83;;;;;;;11.90;67.78;101374.72;10500169;28;20231;-68
2022/04/27 20:44:43;;;;;;;24.40;9.63;;;;;;;11.98;66.05;101378.19;10500205;28;20215;-68
2022/04/27 20:49:47;;;;;;;15.17;8.57;;;;;;;11.92;68.22;101380.81;10499953;28;20730;-69
2022/04/27 20:54:50;;;;;;;16.30;9.23;;;;;;;11.88;69.73;101385.97;10536984;28;20215;-70
2022/04/27 20:59:55;;;;;;;17.83;8.23;;;;;;;11.88;69.72;101386.84;10541339;28;20660;-69
2022/04/27 21:04:58;;;;;;;21.47;8.53;;;;;;;11.77;69.46;101385.97;10541420;28;20683;-68
2022/04/27 21:10:01;;;;;;;15.63;7.80;;;;;;;11.77;71.96;101396.38;10559334;28;20625;-70
2022/04/27 21:15:07;;;;;;;13.97;7.67;;;;;;;11.72;69.11;101398.09;10472079;28;20217;-70
2022/04/27 21:20:17;;;;;;;18.70;7.93;;;;;;;11.60;71.62;101403.22;10466380;28;20236;-71
2022/04/27 21:25:20;;;;;;;14.67;7.73;;;;;;;11.53;69.12;101401.47;10465542;28;20196;-68
2022/04/27 21:30:25;;;;;;;18.03;8.67;;;;;;;11.54;68.58;101406.69;10465667;28;20197;-67
2022/04/27 21:35:29;;;;;;;17.00;8.23;;;;;;;11.43;68.34;101407.53;10465355;28;20271;-70
2022/04/27 21:40:32;;;;;;;15.30;7.87;;;;;;;11.33;69.11;101405.75;10465422;28;20285;-66
2022/04/27 21:45:37;;;;;;;18.90;9.13;;;;;;;11.26;70.23;101397.06;10467767;28;20630;-68
2022/04/27 21:50:40;;;;;;;17.17;7.73;;;;;;;11.14;71.21;101410.03;10510206;28;20204;-67
2022/04/27 21:55:44;;;;;;;14.23;7.83;;;;;;;11.10;69.33;101413.47;10503887;28;20198;-68
2022/04/27 22:01:09;;;;;;;13.97;6.40;;;;;;;10.99;70.98;101419.47;10470534;28;20654;-70
2022/04/27 22:06:14;;;;;;;14.53;6.73;;;;;;;10.87;72.34;101416.81;10464152;28;20237;-68
2022/04/27 22:11:17;;;;;;;15.87;7.40;;;;;;;10.80;72.79;101428.03;10467857;28;20215;-67
2022/04/27 22:16:22;;;;;;;13.63;6.63;;;;;;;10.74;72.69;101423.66;10505137;28;20198;-69
2022/04/27 22:21:27;;;;;;;15.95;7.32;;;;;;;10.74;71.88;101427.97;10502561;28;20450;-68
2022/04/27 22:26:31;;;;;;;14.73;7.13;;;;;;;10.53;77.46;101433.88;10504847;28;20247;-68
2022/04/27 22:31:36;;;;;;;13.10;6.60;;;;;;;10.42;77.75;101436.41;10504850;28;20192;-70
2022/04/27 22:36:39;;;;;;;15.50;7.03;;;;;;;10.29;77.34;101433.69;10504493;28;20273;-68
2022/04/27 22:41:42;;;;;;;16.40;7.47;;;;;;;10.23;78.33;101444.03;10504409;28;20216;-68
2022/04/27 22:46:47;;;;;;;19.97;8.43;;;;;;;10.15;79.15;101436.19;10504199;28;20196;-66
2022/04/27 22:51:50;;;;;;;18.00;8.10;;;;;;;10.09;79.76;101438.72;10504071;28;20284;-72
2022/04/27 22:56:54;;;;;;;18.60;8.17;;;;;;;10.01;78.72;101431.69;10503656;28;20545;-69
2022/04/27 23:01:58;;;;;;;18.93;9.87;;;;;;;9.93;79.85;101438.53;10503510;28;20232;-68
2022/04/27 23:07:01;;;;;;;19.13;9.70;;;;;;;9.86;81.51;101431.53;10503474;28;20226;-69
2022/04/27 23:12:06;;;;;;;23.70;10.40;;;;;;;9.76;82.61;101428.00;10503019;28;20779;-70
2022/04/27 23:17:12;;;;;;;23.77;10.53;;;;;;;9.81;82.64;101433.22;10502984;28;20224;-69
2022/04/27 23:22:15;;;;;;;22.37;10.10;;;;;;;9.63;83.08;101435.63;10502911;28;20549;-65
2022/04/27 23:27:18;;;;;;;20.17;9.37;;;;;;;9.54;82.84;101431.22;10502632;28;20226;-68
2022/04/27 23:32:23;;;;;;;17.63;9.50;;;;;;;9.52;84.64;101440.69;10502035;28;20216;-65
2022/04/27 23:37:26;;;;;;;24.10;10.17;;;;;;;9.47;83.01;101431.13;10501884;28;20246;-68
2022/04/27 23:42:29;;;;;;;21.40;9.83;;;;;;;9.49;84.34;101426.81;10502067;28;20562;-73
2022/04/27 23:47:34;;;;;;;20.10;10.20;;;;;;;9.55;84.77;101429.47;10501625;28;20567;-68
2022/04/27 23:52:38;;;;;;;20.23;9.43;;;;;;;9.58;86.01;101424.34;10501452;28;20303;-69